Time;durP1;ratioP1;P1;durP2;ratioP2;P2;SDS_P1;SDS_P2;PMS_P1;PMS_P2;Temp;Humidity;BMP_temperature;BMP_pressure;BME280_temperature;BME280_humidity;BME280_pressure;Samples;Min_cycle;Max_cycle;Signal;HPM_P1;HPM_P2
2022/08/13 00:01:23;;;;;;;3.85;2.65;;;;;;;20.96;100.00;96318.63;5083797;28;20140;-43
2022/08/13 00:03:55;;;;;;;5.32;3.13;;;;;;;21.26;100.00;96311.63;5085242;28;20083;-40
2022/08/13 00:09:24;;;;;;;5.28;3.20;;;;;;;21.02;100.00;96323.91;5082794;28;20082;-40
2022/08/13 00:14:59;;;;;;;4.22;2.95;;;;;;;21.02;100.00;96323.91;5073651;28;20103;-38
2022/08/13 00:17:33;;;;;;;5.32;3.30;;;;;;;20.70;100.00;96330.25;5087642;28;20099;-41
2022/08/13 00:20:19;;;;;;;3.05;2.75;;;;;;;21.02;100.00;96325.78;5077021;28;20087;-46
2022/08/13 00:22:48;;;;;;;3.45;3.08;;;;;;;20.95;100.00;96325.00;5083134;28;20595;-41
2022/08/13 00:25:29;;;;;;;4.20;3.65;;;;;;;21.09;100.00;96329.25;5078122;28;20493;-39
2022/08/13 00:28:11;;;;;;;5.15;3.40;;;;;;;20.47;100.00;96330.69;5080129;28;20083;-42
2022/08/13 00:30:44;;;;;;;5.47;4.30;;;;;;;20.82;100.00;96324.03;5083886;28;20530;-39
2022/08/13 00:33:17;;;;;;;4.53;3.72;;;;;;;20.63;100.00;96317.69;5072419;28;20102;-40
2022/08/13 00:36:01;;;;;;;5.82;4.57;;;;;;;20.55;100.00;96320.63;5084172;28;20091;-43
2022/08/13 00:38:29;;;;;;;4.45;3.92;;;;;;;20.57;100.00;96323.88;5070311;28;20076;-39
2022/08/13 00:41:07;;;;;;;5.00;4.47;;;;;;;20.57;100.00;96315.84;5070170;28;20080;-40
2022/08/13 00:43:49;;;;;;;6.50;4.82;;;;;;;20.60;100.00;96318.09;5077535;28;20471;-41
2022/08/13 00:46:19;;;;;;;6.95;4.80;;;;;;;20.92;100.00;96309.31;5088387;28;20079;-40
2022/08/13 00:48:48;;;;;;;5.25;4.40;;;;;;;20.49;100.00;96316.06;5075012;28;20101;-45
2022/08/13 00:51:22;;;;;;;4.10;3.70;;;;;;;21.02;100.00;96307.00;5088049;28;20072;-41
2022/08/13 00:54:13;;;;;;;5.25;4.38;;;;;;;21.05;100.00;96307.41;5089825;28;20084;-41
2022/08/13 00:56:43;;;;;;;5.55;3.75;;;;;;;20.94;100.00;96300.06;5076327;28;20969;-42
2022/08/13 00:59:13;;;;;;;5.07;4.30;;;;;;;20.67;100.00;96296.66;5081357;28;20071;-44
2022/08/13 01:01:43;;;;;;;5.10;4.10;;;;;;;20.69;100.00;96291.09;5086788;28;20083;-42
2022/08/13 01:04:21;;;;;;;4.88;3.40;;;;;;;20.46;100.00;96304.94;5076928;28;20493;-41
2022/08/13 01:06:56;;;;;;;7.38;4.00;;;;;;;19.86;100.00;96307.72;5087166;28;20072;-43
2022/08/13 01:09:29;;;;;;;4.25;3.08;;;;;;;19.74;100.00;96306.69;5075719;28;20458;-42
2022/08/13 01:12:20;;;;;;;6.50;3.83;;;;;;;19.66;100.00;96300.50;5076583;28;20084;-42
2022/08/13 01:14:55;;;;;;;4.60;4.13;;;;;;;19.73;100.00;96305.06;5076949;28;20094;-43
2022/08/13 01:17:27;;;;;;;4.68;4.15;;;;;;;19.50;100.00;96305.41;5076956;28;20071;-42
2022/08/13 01:20:20;;;;;;;5.30;4.40;;;;;;;19.60;100.00;96305.84;5076925;28;20134;-44
2022/08/13 01:23:05;;;;;;;5.45;4.63;;;;;;;19.60;100.00;96306.66;5077005;28;20080;-40
2022/08/13 01:25:37;;;;;;;5.78;4.47;;;;;;;19.34;100.00;96306.63;5078272;28;20099;-40
2022/08/13 01:28:27;;;;;;;8.48;4.07;;;;;;;19.15;100.00;96297.53;5071706;28;20515;-41
2022/08/13 01:30:57;;;;;;;;;;;;;;;19.44;100.00;96297.19;5070627;28;20166;-46
2022/08/13 01:33:26;;;;;;;4.47;3.80;;;;;;;19.36;100.00;96296.56;5087776;28;19974;-37
2022/08/13 01:36:04;;;;;;;5.07;3.92;;;;;;;19.29;100.00;96298.38;5076406;28;20094;-43
2022/08/13 01:38:42;;;;;;;5.70;4.70;;;;;;;19.43;100.00;96294.69;5069852;28;20068;-40
2022/08/13 01:41:11;;;;;;;4.10;3.70;;;;;;;19.32;100.00;96296.13;5084175;28;20080;-41
2022/08/13 01:43:45;;;;;;;4.80;4.30;;;;;;;19.14;100.00;96291.38;5079759;28;20464;-42
2022/08/13 01:46:14;;;;;;;8.02;4.20;;;;;;;19.63;100.00;96287.53;5075958;28;20080;-45
2022/08/13 01:51:36;;;;;;;4.55;4.07;;;;;;;19.39;100.00;96302.31;5081704;28;19965;-42
2022/08/13 01:54:12;;;;;;;4.53;3.83;;;;;;;19.22;100.00;96298.38;5082543;28;20083;-42
2022/08/13 01:57:02;;;;;;;3.97;3.58;;;;;;;18.34;100.00;96294.72;5088615;28;20075;-45
2022/08/13 01:59:34;;;;;;;4.43;3.90;;;;;;;18.43;100.00;96302.38;5085417;28;20479;-43
2022/08/13 02:02:23;;;;;;;4.88;4.35;;;;;;;18.29;100.00;96297.19;5075297;28;20072;-42
2022/08/13 02:05:02;;;;;;;5.70;4.60;;;;;;;18.15;100.00;96302.44;5070809;28;20076;-40
2022/08/13 02:07:32;;;;;;;6.93;4.70;;;;;;;18.55;100.00;96300.00;5082997;28;20087;-41
2022/08/13 02:10:23;;;;;;;6.90;5.32;;;;;;;18.91;100.00;96294.38;5081348;28;20071;-43
2022/08/13 02:12:53;;;;;;;7.35;5.15;;;;;;;18.39;100.00;96300.31;5070280;28;20637;-43
2022/08/13 02:15:22;;;;;;;7.20;4.78;;;;;;;18.26;100.00;96288.53;5083868;28;20079;-40
2022/08/13 02:18:14;;;;;;;5.65;5.13;;;;;;;18.06;100.00;96303.59;5082343;28;20080;-43
2022/08/13 02:20:45;;;;;;;5.68;5.07;;;;;;;18.73;100.00;96292.28;5070814;28;20075;-44
2022/08/13 02:23:19;;;;;;;5.18;4.57;;;;;;;18.59;100.00;96289.72;5081129;28;20088;-42
2022/08/13 02:26:09;;;;;;;4.65;4.15;;;;;;;18.50;100.00;96299.75;5069366;28;20080;-43
2022/08/13 02:28:39;;;;;;;5.25;4.07;;;;;;;18.45;100.00;96296.84;5076384;28;20102;-40
2022/08/13 02:31:12;;;;;;;5.28;4.35;;;;;;;18.40;100.00;96300.09;5081760;28;20526;-43
2022/08/13 02:34:01;;;;;;;6.00;4.82;;;;;;;18.32;100.00;96307.47;5082197;28;20080;-39
2022/08/13 02:36:30;;;;;;;4.78;4.25;;;;;;;18.47;100.00;96295.63;5078676;28;20560;-43
2022/08/13 02:39:00;;;;;;;4.95;4.45;;;;;;;18.39;100.00;96297.63;5084868;28;20076;-41
2022/08/13 02:41:43;;;;;;;5.28;4.25;;;;;;;18.14;100.00;96295.44;5075121;28;20080;-39
2022/08/13 02:44:21;;;;;;;6.43;4.25;;;;;;;17.99;100.00;96298.22;5077993;28;20087;-45
2022/08/13 02:47:01;;;;;;;5.60;4.53;;;;;;;17.91;100.00;96290.38;5070242;28;20079;-40
2022/08/13 02:49:31;;;;;;;6.78;3.97;;;;;;;18.11;100.00;96290.50;5079468;28;20080;-40
2022/08/13 02:52:15;;;;;;;5.95;4.40;;;;;;;18.07;100.00;96294.59;5075796;28;20087;-43
2022/08/13 02:54:48;;;;;;;5.80;4.40;;;;;;;18.07;100.00;96301.78;5078926;28;20087;-42
2022/08/13 02:57:26;;;;;;;5.15;4.65;;;;;;;17.95;100.00;96314.81;5082966;28;20075;-40
2022/08/13 02:59:59;;;;;;;6.70;4.68;;;;;;;17.91;100.00;96305.56;5079497;28;20044;-50
2022/08/13 03:02:38;;;;;;;8.18;4.72;;;;;;;17.86;100.00;96302.63;5078712;28;20094;-41
2022/08/13 03:05:09;;;;;;;9.25;5.30;;;;;;;17.92;100.00;96291.19;5086039;28;20075;-43
2022/08/13 03:07:42;;;;;;;6.30;4.90;;;;;;;17.79;100.00;96298.09;5080445;28;20068;-38
2022/08/13 03:10:21;;;;;;;6.18;4.90;;;;;;;17.66;100.00;96292.63;5081515;28;20084;-42
2022/08/13 03:13:17;;;;;;;8.13;5.03;;;;;;;17.29;100.00;96291.06;5085388;28;20090;-45
2022/08/13 03:15:50;;;;;;;7.53;5.32;;;;;;;17.46;100.00;96296.97;5085994;28;20084;-40
2022/08/13 03:18:30;;;;;;;6.80;5.22;;;;;;;17.38;100.00;96295.25;5079052;28;20460;-45
2022/08/13 03:21:19;;;;;;;7.18;5.55;;;;;;;17.64;100.00;96301.81;5082452;28;20514;-41
2022/08/13 03:24:09;;;;;;;7.60;5.38;;;;;;;17.81;100.00;96311.22;5079009;28;20098;-44
2022/08/13 03:26:38;;;;;;;;;;;;;;;17.75;100.00;96304.78;5086123;28;20091;-41
2022/08/13 03:29:09;;;;;;;8.40;4.97;;;;;;;17.73;100.00;96308.66;5081423;28;19959;-42
2022/08/13 03:31:38;;;;;;;7.38;4.93;;;;;;;17.63;100.00;96301.00;5091806;28;20090;-41
2022/08/13 03:34:22;;;;;;;6.10;5.47;;;;;;;17.75;100.00;96302.09;5075111;28;20076;-42
2022/08/13 03:36:53;;;;;;;5.85;5.25;;;;;;;17.82;100.00;96290.69;5084249;28;20114;-40
2022/08/13 03:39:25;;;;;;;7.28;5.60;;;;;;;17.79;100.00;96292.75;5087520;28;20079;-43
2022/08/13 03:41:55;;;;;;;6.22;5.05;;;;;;;17.86;100.00;96287.47;5084352;28;20080;-39
2022/08/13 03:44:30;;;;;;;6.85;5.45;;;;;;;17.98;100.00;96287.75;5078218;28;20446;-41
2022/08/13 03:47:03;;;;;;;5.90;5.30;;;;;;;17.95;100.00;96285.47;5082028;28;20182;-38
2022/08/13 03:49:52;;;;;;;6.65;5.53;;;;;;;17.09;100.00;96286.34;5090332;28;20071;-38
2022/08/13 03:52:20;;;;;;;5.80;5.25;;;;;;;17.39;100.00;96294.22;5091034;28;20072;-41
2022/08/13 03:55:02;;;;;;;8.02;5.85;;;;;;;17.57;100.00;96293.75;5078775;28;20060;-40
2022/08/13 03:57:30;;;;;;;8.70;6.55;;;;;;;17.64;100.00;96286.63;5085429;28;20067;-40
2022/08/13 04:00:22;;;;;;;7.80;6.72;;;;;;;17.60;100.00;96296.06;5084070;28;20142;-42
2022/08/13 04:02:53;;;;;;;7.88;7.07;;;;;;;17.40;100.00;96292.38;5082863;28;20525;-39
2022/08/13 04:05:22;;;;;;;8.82;7.30;;;;;;;17.60;100.00;96293.38;5081935;28;20067;-43
2022/08/13 04:08:11;;;;;;;7.53;5.93;;;;;;;17.84;100.00;96292.16;5083789;28;20072;-40
2022/08/13 04:10:42;;;;;;;6.50;5.80;;;;;;;17.92;100.00;96293.84;5079152;28;20072;-39
2022/08/13 04:13:22;;;;;;;8.07;5.70;;;;;;;17.95;100.00;96304.97;5084555;28;20075;-40
2022/08/13 04:16:14;;;;;;;7.37;5.97;;;;;;;17.76;100.00;96287.00;5082558;28;20087;-44
2022/08/13 04:18:45;;;;;;;7.80;5.38;;;;;;;17.68;100.00;96285.22;5082531;28;20961;-45
2022/08/13 04:21:15;;;;;;;6.18;5.32;;;;;;;17.66;100.00;96287.28;5082535;28;20079;-42
2022/08/13 04:23:52;;;;;;;6.57;5.57;;;;;;;17.72;100.00;96289.19;5087858;28;20541;-39
2022/08/13 04:26:25;;;;;;;6.30;5.30;;;;;;;17.73;100.00;96287.34;5078088;28;20091;-43
2022/08/13 04:29:02;;;;;;;6.80;5.45;;;;;;;17.82;100.00;96275.50;5083567;28;20177;-41
2022/08/13 04:31:32;;;;;;;11.88;5.90;;;;;;;17.73;100.00;96276.66;5088758;28;20094;-47
2022/08/13 04:34:18;;;;;;;6.97;5.68;;;;;;;17.61;100.00;96280.88;5081464;28;20071;-41
2022/08/13 04:37:08;;;;;;;;;;;;;;;18.05;100.00;96277.94;5083970;28;20067;-39
2022/08/13 04:39:50;;;;;;;10.57;5.65;;;;;;;18.15;100.00;96273.06;5087749;28;19955;-39
2022/08/13 04:42:47;;;;;;;8.45;5.97;;;;;;;18.35;100.00;96272.38;5077373;28;20107;-41
2022/08/13 04:45:18;;;;;;;9.15;6.18;;;;;;;18.35;100.00;96269.69;5089456;28;20090;-44
2022/08/13 04:47:53;;;;;;;7.07;6.35;;;;;;;18.46;100.00;96271.78;5084823;28;20086;-40
2022/08/13 04:50:24;;;;;;;11.20;6.97;;;;;;;18.19;100.00;96268.97;5082571;28;20079;-42
2022/08/13 04:52:55;;;;;;;11.32;6.88;;;;;;;18.47;100.00;96265.41;5083951;28;20095;-36
2022/08/13 04:55:24;;;;;;;7.38;6.60;;;;;;;18.43;100.00;96265.00;5078913;28;20076;-40
2022/08/13 04:57:54;;;;;;;;;;;;;;;19.04;100.00;96252.69;5081878;28;20087;-40
2022/08/13 05:00:32;;;;;;;7.90;6.72;;;;;;;19.22;100.00;96252.94;5083242;28;19955;-41
2022/08/13 05:03:12;;;;;;;8.63;7.18;;;;;;;19.68;100.00;96247.63;5083449;28;20087;-43
2022/08/13 05:05:42;;;;;;;8.55;7.65;;;;;;;19.82;100.00;96256.47;5079641;28;20522;-44
2022/08/13 05:08:15;;;;;;;8.13;7.35;;;;;;;20.00;100.00;96250.47;5070297;28;20087;-40
2022/08/13 05:10:45;;;;;;;7.70;6.72;;;;;;;20.84;100.00;96257.63;5070759;28;20545;-41
2022/08/13 05:13:24;;;;;;;8.80;6.90;;;;;;;21.02;100.00;96259.56;5078046;28;20079;-44
2022/08/13 05:15:54;;;;;;;6.88;6.25;;;;;;;20.79;100.00;96257.44;5081516;28;20546;-42
2022/08/13 05:18:33;;;;;;;9.23;5.90;;;;;;;21.80;100.00;96258.44;5080989;28;20044;-39
2022/08/13 05:21:06;;;;;;;6.90;6.25;;;;;;;22.22;100.00;96254.13;5078494;28;20080;-44
2022/08/13 05:23:37;;;;;;;7.43;6.47;;;;;;;22.63;100.00;96254.50;5076845;28;20092;-44
2022/08/13 05:26:28;;;;;;;7.05;6.43;;;;;;;22.94;100.00;96256.19;5069981;28;20087;-41
2022/08/13 05:29:16;;;;;;;7.25;6.55;;;;;;;22.43;100.00;96258.22;5081454;28;20072;-42
2022/08/13 05:31:44;;;;;;;7.28;6.60;;;;;;;22.93;100.00;96263.44;5082514;28;20073;-40
2022/08/13 05:34:26;;;;;;;;;;;;;;;23.47;100.00;96263.50;5090053;28;20084;-43
2022/08/13 05:36:55;;;;;;;6.47;5.75;;;;;;;22.44;100.00;96267.94;5082861;28;19966;-42
2022/08/13 05:39:44;;;;;;;6.28;5.68;;;;;;;23.04;100.00;96269.09;5085657;28;20097;-41
2022/08/13 05:42:19;;;;;;;7.00;6.20;;;;;;;22.10;100.00;96261.25;5084610;28;20067;-40
2022/08/13 05:44:56;;;;;;;8.68;6.32;;;;;;;22.69;100.00;96257.09;5083291;28;20111;-46
2022/08/13 05:47:27;;;;;;;6.95;6.05;;;;;;;22.32;100.00;96250.91;5080859;28;20102;-42
2022/08/13 05:50:13;;;;;;;9.38;6.40;;;;;;;21.41;100.00;96263.09;5083912;28;20130;-39
2022/08/13 05:52:44;;;;;;;6.90;6.30;;;;;;;22.76;100.00;96259.69;5076306;28;20469;-44
2022/08/13 05:55:27;;;;;;;7.03;6.30;;;;;;;23.44;100.00;96261.28;5082795;28;20447;-40
2022/08/13 05:58:15;;;;;;;8.15;6.80;;;;;;;23.46;100.00;96269.91;5080916;28;20080;-43
2022/08/13 06:03:42;;;;;;;10.68;6.80;;;;;;;23.63;100.00;96268.19;5076155;28;20442;-44
2022/08/13 06:06:32;;;;;;;7.13;6.45;;;;;;;24.05;100.00;96262.75;5075516;28;20075;-42
2022/08/13 06:09:04;;;;;;;7.72;6.22;;;;;;;23.96;100.00;96266.88;5068477;28;20090;-47
2022/08/13 06:11:40;;;;;;;7.07;6.18;;;;;;;24.09;100.00;96269.34;5075496;28;20065;-41
2022/08/13 06:14:34;;;;;;;5.45;4.63;;;;;;;23.85;100.00;96265.81;5085631;28;20512;-44
2022/08/13 06:17:07;;;;;;;6.28;4.93;;;;;;;23.55;100.00;96262.34;5073641;28;20454;-41
2022/08/13 06:19:44;;;;;;;5.50;5.00;;;;;;;24.05;99.19;96264.63;5078179;28;20083;-42
2022/08/13 06:22:21;;;;;;;4.85;4.35;;;;;;;23.65;94.12;96265.28;5081902;28;20470;-41
2022/08/13 06:24:51;;;;;;;6.25;4.88;;;;;;;23.54;100.00;96272.31;5085416;28;20518;-40
2022/08/13 06:27:24;;;;;;;6.03;4.95;;;;;;;23.65;100.00;96263.41;5077278;28;20521;-40
2022/08/13 06:30:17;;;;;;;6.03;4.85;;;;;;;24.09;100.00;96266.66;5082316;28;20088;-42
2022/08/13 06:33:02;;;;;;;6.75;4.65;;;;;;;23.75;98.38;96270.16;5084529;28;20080;-40
2022/08/13 06:35:52;;;;;;;4.78;4.30;;;;;;;24.20;88.31;96256.91;5088934;28;20075;-40
2022/08/13 06:38:29;;;;;;;5.15;4.65;;;;;;;23.91;92.85;96270.25;5089085;28;20095;-41
2022/08/13 06:41:02;;;;;;;5.85;4.15;;;;;;;24.37;87.66;96276.69;5077674;28;20071;-40
2022/08/13 06:43:33;;;;;;;5.50;3.95;;;;;;;24.70;83.30;96267.16;5074019;28;20084;-41
2022/08/13 06:46:22;;;;;;;5.30;3.95;;;;;;;24.80;79.96;96264.66;5079379;28;20068;-40
2022/08/13 06:48:57;;;;;;;5.57;4.28;;;;;;;24.51;85.93;96268.38;5079867;28;20082;-41
2022/08/13 06:51:29;;;;;;;5.82;3.80;;;;;;;24.84;80.56;96263.16;5079380;28;20087;-42
2022/08/13 06:54:08;;;;;;;4.32;3.67;;;;;;;24.85;79.40;96263.97;5086550;28;20072;-45
2022/08/13 06:56:57;;;;;;;4.72;3.75;;;;;;;25.15;76.35;96277.22;5083248;28;20361;-39
2022/08/13 06:59:44;;;;;;;4.13;3.70;;;;;;;24.95;79.09;96266.84;5089029;28;20082;-41
2022/08/13 07:02:35;;;;;;;4.05;3.60;;;;;;;24.84;81.24;96268.53;5084766;28;20458;-40
2022/08/13 07:05:05;;;;;;;3.85;3.40;;;;;;;25.25;71.31;96263.94;5082853;28;20125;-41
2022/08/13 07:07:35;;;;;;;;;;;;;;;25.09;73.64;96267.41;5082214;28;20079;-43
2022/08/13 07:10:06;;;;;;;5.53;3.00;;;;;;;25.36;70.68;96269.50;5080225;28;19962;-45
2022/08/13 07:12:35;;;;;;;3.20;2.90;;;;;;;25.25;66.91;96277.41;5084438;28;20545;-41
2022/08/13 07:15:04;;;;;;;4.40;2.90;;;;;;;25.22;72.30;96277.09;5079659;28;20073;-42
2022/08/13 07:17:51;;;;;;;3.53;2.92;;;;;;;25.86;65.73;96275.00;5075520;28;20068;-40
2022/08/13 07:20:21;;;;;;;4.13;2.65;;;;;;;25.82;65.61;96271.16;5086380;28;20066;-44
2022/08/13 07:22:52;;;;;;;4.30;3.30;;;;;;;25.63;62.29;96270.53;5077025;28;20084;-44
2022/08/13 07:25:44;;;;;;;3.90;3.22;;;;;;;26.12;61.12;96273.50;5085855;28;20086;-42
2022/08/13 07:28:27;;;;;;;3.88;3.10;;;;;;;26.55;60.01;96263.84;5107388;28;20566;-40
2022/08/13 07:31:17;;;;;;;4.18;2.83;;;;;;;26.63;58.30;96260.69;5078377;28;20052;-40
2022/08/13 07:33:51;;;;;;;3.40;2.85;;;;;;;25.82;57.05;96263.03;5090313;28;20087;-40
2022/08/13 07:36:27;;;;;;;4.13;2.95;;;;;;;26.25;59.15;96261.50;5074944;28;20079;-44
2022/08/13 07:38:57;;;;;;;4.57;2.40;;;;;;;26.11;62.64;96273.75;5080555;28;20074;-39
2022/08/13 07:41:28;;;;;;;4.00;3.10;;;;;;;26.24;61.84;96274.22;5072239;28;20080;-39
2022/08/13 07:43:59;;;;;;;3.40;2.80;;;;;;;26.55;58.08;96268.44;5077649;28;20076;-41
2022/08/13 07:46:42;;;;;;;4.53;3.30;;;;;;;26.52;57.11;96270.56;5082414;28;20078;-40
2022/08/13 07:49:26;;;;;;;3.90;3.22;;;;;;;26.58;56.00;96266.06;5071583;28;20072;-41
2022/08/13 07:52:13;;;;;;;6.13;3.10;;;;;;;26.99;53.81;96266.56;5082026;28;20071;-41
2022/08/13 07:54:45;;;;;;;4.10;3.30;;;;;;;27.04;55.05;96268.50;5077095;28;20263;-39
2022/08/13 07:57:18;;;;;;;4.93;4.05;;;;;;;26.90;56.21;96271.59;5078107;28;20068;-42
2022/08/13 08:00:08;;;;;;;3.83;3.42;;;;;;;26.42;58.42;96280.41;5084250;28;20075;-40
2022/08/13 08:02:55;;;;;;;3.53;3.22;;;;;;;27.01;54.44;96271.69;5089452;28;20474;-41
2022/08/13 08:05:25;;;;;;;6.07;5.40;;;;;;;26.49;58.76;96273.78;5084658;28;20110;-41
2022/08/13 08:08:06;;;;;;;4.53;3.95;;;;;;;26.69;59.35;96273.22;5086905;28;20064;-40
2022/08/13 08:10:39;;;;;;;4.70;3.30;;;;;;;27.17;54.55;96277.06;5078106;28;20075;-43
2022/08/13 08:13:10;;;;;;;5.22;4.68;;;;;;;27.21;55.97;96278.19;5077623;28;20472;-41
2022/08/13 08:15:42;;;;;;;5.32;4.05;;;;;;;27.63;53.94;96282.09;5076256;28;20075;-39
2022/08/13 08:18:32;;;;;;;6.85;3.47;;;;;;;27.83;52.85;96268.78;5088073;28;20094;-40
2022/08/13 08:21:23;;;;;;;3.60;3.10;;;;;;;28.04;49.34;96275.16;5086364;28;20074;-42
2022/08/13 08:24:13;;;;;;;4.07;3.10;;;;;;;27.04;54.89;96290.16;5078671;28;20103;-41
2022/08/13 08:26:59;;;;;;;3.92;3.40;;;;;;;27.69;52.91;96281.09;5084480;28;20079;-42
2022/08/13 08:29:31;;;;;;;3.40;2.95;;;;;;;27.71;52.82;96278.94;5086714;28;20075;-43
2022/08/13 08:32:08;;;;;;;3.63;3.28;;;;;;;27.90;50.98;96279.38;5086206;28;20491;-43
2022/08/13 08:34:38;;;;;;;3.90;3.08;;;;;;;28.12;50.30;96273.88;5088812;28;20102;-45
2022/08/13 08:37:09;;;;;;;4.85;2.78;;;;;;;28.41;50.82;96284.38;5078108;28;20072;-41
2022/08/13 08:42:38;;;;;;;4.85;2.67;;;;;;;28.45;48.53;96280.88;5075914;28;20068;-43
2022/08/13 08:45:27;;;;;;;;;;;;;;;27.69;50.78;96281.91;5084944;28;20659;-41
2022/08/13 08:48:17;;;;;;;4.05;3.50;;;;;;;27.48;51.78;96274.66;5078475;28;19954;-40
2022/08/13 08:50:55;;;;;;;6.32;2.97;;;;;;;28.27;49.20;96284.00;5083548;28;20075;-39
2022/08/13 08:53:25;;;;;;;4.70;3.00;;;;;;;28.57;46.76;96278.78;5075203;28;20059;-44
2022/08/13 08:56:16;;;;;;;3.90;2.83;;;;;;;28.74;47.26;96272.34;5082689;28;20082;-43
2022/08/13 08:58:45;;;;;;;5.15;3.17;;;;;;;28.43;47.25;96280.34;5077516;28;20060;-42
2022/08/13 09:01:16;;;;;;;5.07;3.17;;;;;;;28.35;48.10;96284.31;5083939;28;20083;-42
2022/08/13 09:03:49;;;;;;;4.05;3.00;;;;;;;29.14;47.29;96274.41;5078730;28;20099;-43
2022/08/13 09:06:28;;;;;;;4.10;3.35;;;;;;;29.46;46.76;96265.28;5083567;28;20502;-44
2022/08/13 09:09:17;;;;;;;3.63;3.17;;;;;;;28.35;49.51;96275.38;5078556;28;20546;-41
2022/08/13 09:11:48;;;;;;;4.68;3.30;;;;;;;28.83;48.56;96268.03;5085602;28;20458;-41
2022/08/13 09:14:25;;;;;;;3.28;2.97;;;;;;;29.54;47.34;96259.28;5085953;28;20094;-46
2022/08/13 09:16:57;;;;;;;4.55;2.85;;;;;;;29.33;46.86;96261.97;5083557;28;20578;-41
2022/08/13 09:19:27;;;;;;;5.50;3.25;;;;;;;29.49;46.79;96264.69;5085940;28;20087;-42
2022/08/13 09:22:20;;;;;;;3.75;3.28;;;;;;;29.72;46.72;96261.50;5089228;28;20530;-44
2022/08/13 09:24:56;;;;;;;4.68;3.35;;;;;;;29.30;47.92;96265.22;5083136;28;20099;-42
2022/08/13 09:27:28;;;;;;;5.10;3.58;;;;;;;29.46;48.09;96263.38;5086551;28;20063;-40
2022/08/13 09:30:16;;;;;;;3.80;3.50;;;;;;;29.27;48.47;96262.25;5082803;28;20080;-41
2022/08/13 09:32:56;;;;;;;5.80;3.50;;;;;;;30.33;44.99;96263.38;5076524;28;20072;-44
2022/08/13 09:35:26;;;;;;;4.25;3.38;;;;;;;30.44;43.77;96259.53;5074406;28;20076;-43
2022/08/13 09:38:02;;;;;;;4.30;3.20;;;;;;;29.89;44.94;96263.94;5076457;28;20102;-48
2022/08/13 09:40:33;;;;;;;4.28;3.22;;;;;;;29.99;46.00;96263.94;5075771;28;20087;-44
2022/08/13 09:43:19;;;;;;;3.63;2.80;;;;;;;30.01;45.27;96264.50;5082556;28;20080;-41
2022/08/13 09:46:08;;;;;;;3.20;2.90;;;;;;;29.70;45.82;96255.53;5076256;28;20084;-40
2022/08/13 09:48:38;;;;;;;4.93;3.50;;;;;;;29.67;45.32;96257.97;5074388;28;20071;-40
2022/08/13 09:51:13;;;;;;;4.60;3.17;;;;;;;30.06;45.56;96254.69;5089089;28;20087;-39
2022/08/13 09:54:01;;;;;;;3.63;3.10;;;;;;;29.90;45.39;96259.31;5078080;28;20106;-40
2022/08/13 09:56:37;;;;;;;3.80;3.40;;;;;;;30.13;43.76;96255.22;5088748;28;20080;-40
2022/08/13 09:59:06;;;;;;;4.72;3.42;;;;;;;30.19;43.97;96251.44;5083085;28;20072;-38
2022/08/13 10:01:42;;;;;;;5.07;3.20;;;;;;;30.44;43.32;96253.28;5087901;28;20549;-42
2022/08/13 10:04:27;;;;;;;4.18;3.05;;;;;;;30.64;42.82;96250.50;5082176;28;20087;-44
2022/08/13 10:06:58;;;;;;;6.47;3.25;;;;;;;30.31;42.75;96251.97;5074958;28;20076;-41
2022/08/13 10:09:33;;;;;;;5.88;3.20;;;;;;;31.16;41.73;96246.47;5088054;28;20091;-40
2022/08/13 10:12:02;;;;;;;5.57;2.97;;;;;;;30.80;41.18;96253.19;5082700;28;20506;-40
2022/08/13 10:14:48;;;;;;;6.55;2.92;;;;;;;30.40;40.25;96253.03;5081548;28;20095;-43
2022/08/13 10:17:25;;;;;;;5.53;3.03;;;;;;;29.96;42.28;96259.03;5088730;28;20103;-42
2022/08/13 10:20:17;;;;;;;4.15;2.83;;;;;;;30.09;41.34;96246.81;5080710;28;20153;-42
2022/08/13 10:22:48;;;;;;;3.22;2.70;;;;;;;30.13;41.26;96250.59;5083229;28;20083;-41
2022/08/13 10:25:17;;;;;;;3.30;2.88;;;;;;;29.84;40.25;96250.38;5081778;28;20079;-41
2022/08/13 10:27:46;;;;;;;4.15;2.80;;;;;;;30.58;41.43;96253.53;5080005;28;20095;-43
2022/08/13 10:30:18;;;;;;;4.85;2.83;;;;;;;30.20;39.94;96251.16;5078347;28;20092;-42
2022/08/13 10:33:08;;;;;;;3.20;2.90;;;;;;;30.48;40.96;96238.84;5081313;28;20079;-43
2022/08/13 10:35:38;;;;;;;3.20;2.90;;;;;;;30.37;41.28;96245.41;5069176;28;20523;-43
2022/08/13 10:38:15;;;;;;;4.05;3.15;;;;;;;30.35;39.30;96244.06;5082309;28;20075;-47
2022/08/13 10:40:48;;;;;;;4.25;2.97;;;;;;;30.67;40.07;96243.69;5081554;28;20083;-45
2022/08/13 10:43:21;;;;;;;7.00;3.08;;;;;;;31.11;38.85;96229.34;5082368;28;20075;-41
2022/08/13 10:45:56;;;;;;;3.28;2.80;;;;;;;30.50;38.73;96233.94;5078158;28;20084;-43
2022/08/13 10:48:35;;;;;;;3.90;2.92;;;;;;;31.30;36.35;96230.31;5081626;28;20083;-41
2022/08/13 10:51:06;;;;;;;3.80;2.65;;;;;;;30.83;38.42;96237.09;5081808;28;20526;-40
2022/08/13 10:56:21;;;;;;;5.32;2.90;;;;;;;30.90;37.47;96226.75;5082638;28;20113;-46
2022/08/13 10:58:55;;;;;;;3.90;2.50;;;;;;;30.12;37.25;96221.78;5081650;28;20531;-42
2022/08/13 11:01:26;;;;;;;4.18;2.90;;;;;;;30.24;38.10;96229.66;5086474;28;20086;-40
2022/08/13 11:03:58;;;;;;;3.10;2.80;;;;;;;30.85;37.41;96232.22;5070661;28;20076;-45
2022/08/13 11:06:36;;;;;;;5.10;2.65;;;;;;;31.08;36.54;96221.75;5079614;28;20083;-42
2022/08/13 11:09:08;;;;;;;3.10;2.35;;;;;;;30.68;36.41;96227.06;5084128;28;20072;-40
2022/08/13 11:11:53;;;;;;;4.18;2.35;;;;;;;30.93;35.47;96220.72;5075328;28;20092;-41
2022/08/13 11:14:22;;;;;;;3.38;2.85;;;;;;;31.13;36.24;96221.72;5075642;28;20083;-42
2022/08/13 11:17:04;;;;;;;;;;;;;;;31.18;34.85;96221.69;5077492;28;20086;-41
2022/08/13 11:19:45;;;;;;;3.40;2.50;;;;;;;31.34;34.57;96220.50;5087137;28;19976;-42
2022/08/13 11:22:18;;;;;;;5.45;2.72;;;;;;;31.53;34.90;96222.56;5085147;28;20094;-44
2022/08/13 11:24:56;;;;;;;4.85;2.40;;;;;;;31.49;33.99;96222.34;5091389;28;20115;-41
2022/08/13 11:27:25;;;;;;;3.22;2.53;;;;;;;31.61;34.78;96225.50;5086629;28;20530;-41
2022/08/13 11:30:14;;;;;;;2.65;2.40;;;;;;;31.88;33.85;96218.75;5084936;28;20438;-44
2022/08/13 11:33:01;;;;;;;2.65;2.45;;;;;;;31.47;33.71;96212.81;5076163;28;20075;-47
2022/08/13 11:35:34;;;;;;;2.50;2.30;;;;;;;30.59;35.53;96206.97;5086688;28;20080;-45
2022/08/13 11:38:09;;;;;;;2.85;2.55;;;;;;;31.30;34.18;96213.16;5084499;28;20076;-41
2022/08/13 11:40:39;;;;;;;3.55;2.60;;;;;;;31.79;34.10;96210.34;5084506;28;20099;-42
2022/08/13 11:43:08;;;;;;;3.75;2.50;;;;;;;31.37;35.16;96200.88;5078349;28;20756;-43
2022/08/13 11:45:45;;;;;;;3.92;2.40;;;;;;;31.05;34.68;96205.97;5086279;28;20100;-41
2022/08/13 11:48:16;;;;;;;3.22;2.70;;;;;;;32.09;32.88;96209.28;5084743;28;20079;-44
2022/08/13 11:50:57;;;;;;;3.03;2.67;;;;;;;31.63;32.57;96208.88;5081846;28;20801;-43
2022/08/13 11:53:28;;;;;;;2.60;2.40;;;;;;;32.92;31.35;96198.25;5078070;28;20087;-44
2022/08/13 11:55:58;;;;;;;3.42;2.28;;;;;;;32.27;32.34;96201.44;5081438;28;20083;-42
2022/08/13 11:58:32;;;;;;;3.30;2.50;;;;;;;31.18;34.33;96197.19;5079290;28;20087;-42
2022/08/13 12:01:21;;;;;;;2.95;2.40;;;;;;;32.33;33.45;96187.47;5085337;28;20502;-45
2022/08/13 12:03:54;;;;;;;3.75;2.40;;;;;;;32.00;32.59;96196.53;5085688;28;20067;-46
2022/08/13 12:06:42;;;;;;;4.05;2.42;;;;;;;32.03;32.25;96195.97;5082936;28;20152;-41
2022/08/13 12:09:20;;;;;;;4.57;2.83;;;;;;;32.86;31.10;96189.28;5076568;28;20803;-48
2022/08/13 12:12:09;;;;;;;2.45;2.25;;;;;;;32.59;31.41;96198.94;5083918;28;20408;-44
2022/08/13 12:14:50;;;;;;;2.80;2.60;;;;;;;32.87;31.30;96201.06;5090350;28;20094;-47
2022/08/13 12:17:19;;;;;;;2.40;2.20;;;;;;;33.23;31.23;96193.19;5088334;28;20476;-42
2022/08/13 12:20:09;;;;;;;2.43;2.07;;;;;;;33.49;30.77;96193.66;5077607;28;20099;-48
2022/08/13 12:22:49;;;;;;;2.90;2.60;;;;;;;33.36;30.34;96194.38;5085593;28;21055;-48
2022/08/13 12:25:21;;;;;;;3.67;2.28;;;;;;;32.37;31.38;96201.34;5075424;28;20128;-41
2022/08/13 12:28:12;;;;;;;3.72;2.42;;;;;;;33.26;30.75;96200.78;5075307;28;20590;-44
2022/08/13 12:30:50;;;;;;;4.60;2.65;;;;;;;32.64;30.90;96197.25;5077577;28;20527;-46
2022/08/13 12:33:19;;;;;;;4.35;2.80;;;;;;;32.34;31.17;96202.72;5078933;28;20075;-42
2022/08/13 12:35:50;;;;;;;4.80;2.67;;;;;;;32.20;32.16;96211.91;5077978;28;20583;-43